sensor_id;sensor_type;location;lat;lon;timestamp;pressure;altitude;pressure_sealevel;temperature;humidity
63132;BME280;49234;35.600;139.358;2022-08-18T00:00:41;99264.80;;;27.03;54.68
63132;BME280;49234;35.600;139.358;2022-08-18T00:03:11;99264.47;;;26.85;55.05
63132;BME280;49234;35.600;139.358;2022-08-18T00:05:40;99257.90;;;26.96;54.74
63132;BME280;49234;35.600;139.358;2022-08-18T00:08:09;99234.54;;;26.74;54.94
63132;BME280;49234;35.600;139.358;2022-08-18T00:10:40;99211.79;;;26.74;55.02
63132;BME280;49234;35.600;139.358;2022-08-18T00:13:10;99189.62;;;26.74;54.83
63132;BME280;49234;35.600;139.358;2022-08-18T00:15:39;99176.46;;;26.61;55.42
63132;BME280;49234;35.600;139.358;2022-08-18T00:18:08;99164.34;;;26.78;55.21
63132;BME280;49234;35.600;139.358;2022-08-18T00:20:39;99155.95;;;26.69;55.29
63132;BME280;49234;35.600;139.358;2022-08-18T00:23:08;99171.30;;;26.99;55.69
63132;BME280;49234;35.600;139.358;2022-08-18T00:25:37;99179.92;;;26.92;55.45
63132;BME280;49234;35.600;139.358;2022-08-18T00:28:07;99181.68;;;26.97;55.62
63132;BME280;49234;35.600;139.358;2022-08-18T00:30:37;99170.07;;;27.05;55.32
63132;BME280;49234;35.600;139.358;2022-08-18T00:33:06;99175.92;;;27.21;55.24
63132;BME280;49234;35.600;139.358;2022-08-18T00:35:37;99185.32;;;27.21;55.07
63132;BME280;49234;35.600;139.358;2022-08-18T00:38:08;99192.72;;;27.09;55.44
63132;BME280;49234;35.600;139.358;2022-08-18T00:40:41;99186.36;;;27.25;55.44
63132;BME280;49234;35.600;139.358;2022-08-18T00:43:15;99172.37;;;27.02;56.29
63132;BME280;49234;35.600;139.358;2022-08-18T00:45:47;99161.51;;;27.18;56.13
63132;BME280;49234;35.600;139.358;2022-08-18T00:48:17;99175.12;;;27.25;56.14
63132;BME280;49234;35.600;139.358;2022-08-18T00:50:51;99163.76;;;27.47;55.95
63132;BME280;49234;35.600;139.358;2022-08-18T00:53:24;99166.69;;;26.89;56.29
63132;BME280;49234;35.600;139.358;2022-08-18T00:55:55;99165.19;;;27.14;56.44
63132;BME280;49234;35.600;139.358;2022-08-18T00:58:30;99158.16;;;26.85;56.62
63132;BME280;49234;35.600;139.358;2022-08-18T01:01:01;99175.01;;;27.05;56.84
63132;BME280;49234;35.600;139.358;2022-08-18T01:03:33;99161.67;;;27.07;57.12
63132;BME280;49234;35.600;139.358;2022-08-18T01:06:08;99145.26;;;26.95;57.36
63132;BME280;49234;35.600;139.358;2022-08-18T01:08:39;99135.42;;;27.02;57.41
63132;BME280;49234;35.600;139.358;2022-08-18T01:11:08;99136.05;;;26.94;58.01
63132;BME280;49234;35.600;139.358;2022-08-18T01:13:39;99123.80;;;27.00;58.00
63132;BME280;49234;35.600;139.358;2022-08-18T01:16:09;99107.96;;;26.71;57.47
63132;BME280;49234;35.600;139.358;2022-08-18T01:18:37;99090.72;;;26.73;58.20
63132;BME280;49234;35.600;139.358;2022-08-18T01:21:11;99074.33;;;26.44;59.43
63132;BME280;49234;35.600;139.358;2022-08-18T01:23:42;99071.63;;;26.71;58.55
63132;BME280;49234;35.600;139.358;2022-08-18T01:26:14;99074.40;;;26.60;59.90
63132;BME280;49234;35.600;139.358;2022-08-18T01:28:46;99087.71;;;26.63;59.22
63132;BME280;49234;35.600;139.358;2022-08-18T01:31:31;99077.06;;;26.16;60.47
63132;BME280;49234;35.600;139.358;2022-08-18T01:34:01;99056.43;;;26.50;60.29
63132;BME280;49234;35.600;139.358;2022-08-18T01:36:30;99051.09;;;26.62;60.07
63132;BME280;49234;35.600;139.358;2022-08-18T01:39:02;99032.86;;;26.89;59.22
63132;BME280;49234;35.600;139.358;2022-08-18T01:41:33;99014.33;;;26.74;59.18
63132;BME280;49234;35.600;139.358;2022-08-18T01:44:03;98993.19;;;27.06;58.57
63132;BME280;49234;35.600;139.358;2022-08-18T01:46:33;99002.54;;;26.66;59.47
63132;BME280;49234;35.600;139.358;2022-08-18T01:49:04;99005.83;;;26.67;60.30
63132;BME280;49234;35.600;139.358;2022-08-18T01:51:34;98992.12;;;26.50;61.11
63132;BME280;49234;35.600;139.358;2022-08-18T01:54:05;98975.47;;;26.59;60.10
63132;BME280;49234;35.600;139.358;2022-08-18T01:56:34;98971.13;;;26.59;60.52
63132;BME280;49234;35.600;139.358;2022-08-18T01:59:04;98966.97;;;27.56;58.38
63132;BME280;49234;35.600;139.358;2022-08-18T02:01:37;98946.87;;;26.80;59.53
63132;BME280;49234;35.600;139.358;2022-08-18T02:04:06;98939.04;;;27.55;58.55
63132;BME280;49234;35.600;139.358;2022-08-18T02:06:37;98948.44;;;27.29;58.68
63132;BME280;49234;35.600;139.358;2022-08-18T02:09:06;98946.13;;;27.70;58.13
63132;BME280;49234;35.600;139.358;2022-08-18T02:11:36;98955.01;;;27.73;57.97
63132;BME280;49234;35.600;139.358;2022-08-18T02:14:05;98964.75;;;27.44;58.63
63132;BME280;49234;35.600;139.358;2022-08-18T02:16:34;98954.12;;;27.62;58.23
63132;BME280;49234;35.600;139.358;2022-08-18T02:19:03;98938.11;;;27.59;58.38
63132;BME280;49234;35.600;139.358;2022-08-18T02:21:33;98936.37;;;27.53;58.75
63132;BME280;49234;35.600;139.358;2022-08-18T02:24:02;98925.13;;;27.83;57.83
63132;BME280;49234;35.600;139.358;2022-08-18T02:26:31;98902.87;;;27.25;58.58
63132;BME280;49234;35.600;139.358;2022-08-18T02:29:00;98903.81;;;28.23;56.85
63132;BME280;49234;35.600;139.358;2022-08-18T02:31:29;98905.15;;;27.26;58.04
63132;BME280;49234;35.600;139.358;2022-08-18T02:33:58;98909.20;;;27.58;57.45
63132;BME280;49234;35.600;139.358;2022-08-18T02:36:28;98921.21;;;27.42;57.72
63132;BME280;49234;35.600;139.358;2022-08-18T02:38:57;98938.88;;;27.32;57.79
63132;BME280;49234;35.600;139.358;2022-08-18T02:41:27;98931.31;;;27.49;57.84
63132;BME280;49234;35.600;139.358;2022-08-18T02:43:57;98914.18;;;27.24;58.06
63132;BME280;49234;35.600;139.358;2022-08-18T02:46:26;98915.62;;;27.63;57.22
63132;BME280;49234;35.600;139.358;2022-08-18T02:48:56;98910.07;;;27.80;56.78
63132;BME280;49234;35.600;139.358;2022-08-18T02:51:25;98908.01;;;26.97;58.11
63132;BME280;49234;35.600;139.358;2022-08-18T02:53:55;98898.66;;;27.82;56.89
63132;BME280;49234;35.600;139.358;2022-08-18T02:56:26;98884.27;;;27.76;56.76
63132;BME280;49234;35.600;139.358;2022-08-18T02:58:58;98868.72;;;28.18;55.73
63132;BME280;49234;35.600;139.358;2022-08-18T03:01:31;98875.10;;;28.09;55.82
63132;BME280;49234;35.600;139.358;2022-08-18T03:04:01;98869.19;;;28.38;55.40
63132;BME280;49234;35.600;139.358;2022-08-18T03:06:30;98875.21;;;28.37;55.66
63132;BME280;49234;35.600;139.358;2022-08-18T03:09:00;98870.89;;;28.41;54.62
63132;BME280;49234;35.600;139.358;2022-08-18T03:11:30;98871.53;;;28.13;54.90
63132;BME280;49234;35.600;139.358;2022-08-18T03:13:59;98884.42;;;28.70;55.32
63132;BME280;49234;35.600;139.358;2022-08-18T03:16:29;98888.22;;;29.12;53.42
63132;BME280;49234;35.600;139.358;2022-08-18T03:18:59;98873.13;;;28.89;54.74
63132;BME280;49234;35.600;139.358;2022-08-18T03:21:30;98864.62;;;28.52;54.86
63132;BME280;49234;35.600;139.358;2022-08-18T03:24:00;98854.98;;;29.02;54.68
63132;BME280;49234;35.600;139.358;2022-08-18T03:26:31;98844.03;;;28.65;54.17
63132;BME280;49234;35.600;139.358;2022-08-18T03:29:01;98848.33;;;29.16;53.19
63132;BME280;49234;35.600;139.358;2022-08-18T03:31:30;98862.36;;;29.14;53.73
63132;BME280;49234;35.600;139.358;2022-08-18T03:34:00;98873.91;;;29.14;52.88
63132;BME280;49234;35.600;139.358;2022-08-18T03:36:30;98888.48;;;29.37;52.56
63132;BME280;49234;35.600;139.358;2022-08-18T03:39:03;98900.93;;;29.05;52.80
63132;BME280;49234;35.600;139.358;2022-08-18T03:41:33;98910.38;;;28.98;52.14
63132;BME280;49234;35.600;139.358;2022-08-18T03:44:03;98897.13;;;29.36;51.81
63132;BME280;49234;35.600;139.358;2022-08-18T03:46:33;98893.56;;;29.71;51.94
63132;BME280;49234;35.600;139.358;2022-08-18T03:49:02;98899.17;;;29.74;52.57
63132;BME280;49234;35.600;139.358;2022-08-18T03:51:33;98893.74;;;29.98;51.04
63132;BME280;49234;35.600;139.358;2022-08-18T03:54:03;98880.39;;;29.85;50.81
63132;BME280;49234;35.600;139.358;2022-08-18T03:56:35;98874.24;;;29.54;50.83
63132;BME280;49234;35.600;139.358;2022-08-18T03:59:06;98871.76;;;29.08;52.12
63132;BME280;49234;35.600;139.358;2022-08-18T04:01:39;98867.62;;;30.02;50.02
63132;BME280;49234;35.600;139.358;2022-08-18T04:04:10;98860.75;;;30.63;49.96
63132;BME280;49234;35.600;139.358;2022-08-18T04:06:43;98865.16;;;30.14;49.50
63132;BME280;49234;35.600;139.358;2022-08-18T04:09:13;98859.83;;;29.97;50.22
63132;BME280;49234;35.600;139.358;2022-08-18T04:11:43;98849.21;;;30.20;50.16
63132;BME280;49234;35.600;139.358;2022-08-18T04:14:15;98828.25;;;30.84;49.24
63132;BME280;49234;35.600;139.358;2022-08-18T04:16:46;98832.35;;;30.48;49.81
63132;BME280;49234;35.600;139.358;2022-08-18T04:19:15;98838.24;;;30.16;49.44
63132;BME280;49234;35.600;139.358;2022-08-18T04:21:45;98835.86;;;30.23;49.67
63132;BME280;49234;35.600;139.358;2022-08-18T04:24:19;98831.86;;;30.29;49.21
63132;BME280;49234;35.600;139.358;2022-08-18T04:26:48;98826.05;;;30.22;48.38
63132;BME280;49234;35.600;139.358;2022-08-18T04:29:21;98818.56;;;30.16;49.15
63132;BME280;49234;35.600;139.358;2022-08-18T04:31:51;98816.56;;;30.66;48.82
63132;BME280;49234;35.600;139.358;2022-08-18T04:34:21;98822.46;;;30.76;47.58
63132;BME280;49234;35.600;139.358;2022-08-18T04:36:51;98831.59;;;30.83;48.37
63132;BME280;49234;35.600;139.358;2022-08-18T04:39:21;98823.78;;;30.78;47.83
63132;BME280;49234;35.600;139.358;2022-08-18T04:41:51;98823.93;;;30.87;48.00
63132;BME280;49234;35.600;139.358;2022-08-18T04:44:21;98828.65;;;30.97;48.48
63132;BME280;49234;35.600;139.358;2022-08-18T04:46:52;98820.64;;;30.80;48.54
63132;BME280;49234;35.600;139.358;2022-08-18T04:49:23;98817.29;;;31.06;48.53
63132;BME280;49234;35.600;139.358;2022-08-18T04:51:54;98813.49;;;31.33;47.61
63132;BME280;49234;35.600;139.358;2022-08-18T04:54:24;98804.17;;;31.45;47.78
63132;BME280;49234;35.600;139.358;2022-08-18T04:56:53;98793.15;;;31.14;47.84
63132;BME280;49234;35.600;139.358;2022-08-18T04:59:23;98788.38;;;31.63;46.16
63132;BME280;49234;35.600;139.358;2022-08-18T05:01:52;98777.99;;;31.60;47.01
63132;BME280;49234;35.600;139.358;2022-08-18T05:04:22;98767.85;;;31.47;46.64
63132;BME280;49234;35.600;139.358;2022-08-18T05:06:51;98766.52;;;31.24;46.71
63132;BME280;49234;35.600;139.358;2022-08-18T05:09:21;98765.72;;;31.72;46.41
63132;BME280;49234;35.600;139.358;2022-08-18T05:11:51;98769.37;;;31.71;46.61
63132;BME280;49234;35.600;139.358;2022-08-18T05:14:20;98773.15;;;31.82;45.01
63132;BME280;49234;35.600;139.358;2022-08-18T05:16:49;98768.52;;;31.30;45.75
63132;BME280;49234;35.600;139.358;2022-08-18T05:19:20;98763.21;;;31.50;45.05
63132;BME280;49234;35.600;139.358;2022-08-18T05:21:49;98756.15;;;31.68;45.08
63132;BME280;49234;35.600;139.358;2022-08-18T05:24:20;98747.25;;;32.09;44.57
63132;BME280;49234;35.600;139.358;2022-08-18T05:26:50;98749.93;;;31.72;45.78
63132;BME280;49234;35.600;139.358;2022-08-18T05:29:20;98751.72;;;31.78;45.59
63132;BME280;49234;35.600;139.358;2022-08-18T05:31:50;98750.85;;;31.92;44.50
63132;BME280;49234;35.600;139.358;2022-08-18T05:34:20;98744.63;;;32.43;43.05
63132;BME280;49234;35.600;139.358;2022-08-18T05:37:02;98734.41;;;32.14;43.16
63132;BME280;49234;35.600;139.358;2022-08-18T05:39:40;98716.24;;;32.48;43.52
63132;BME280;49234;35.600;139.358;2022-08-18T05:42:13;98710.75;;;31.81;44.37
63132;BME280;49234;35.600;139.358;2022-08-18T05:44:45;98712.22;;;32.49;43.03
63132;BME280;49234;35.600;139.358;2022-08-18T05:47:18;98714.83;;;32.18;41.17
63132;BME280;49234;35.600;139.358;2022-08-18T05:49:49;98719.72;;;32.00;42.83
63132;BME280;49234;35.600;139.358;2022-08-18T05:52:24;98721.31;;;32.07;42.79
63132;BME280;49234;35.600;139.358;2022-08-18T05:54:57;98722.44;;;32.56;42.08
63132;BME280;49234;35.600;139.358;2022-08-18T05:57:31;98719.34;;;32.10;42.18
63132;BME280;49234;35.600;139.358;2022-08-18T06:00:03;98713.57;;;33.41;40.71
63132;BME280;49234;35.600;139.358;2022-08-18T06:02:36;98717.12;;;32.59;41.40
63132;BME280;49234;35.600;139.358;2022-08-18T06:05:08;98713.54;;;32.94;41.47
63132;BME280;49234;35.600;139.358;2022-08-18T06:07:42;98713.61;;;33.28;39.47
63132;BME280;49234;35.600;139.358;2022-08-18T06:10:12;98717.48;;;33.19;39.46
63132;BME280;49234;35.600;139.358;2022-08-18T06:12:44;98714.32;;;32.84;40.37
63132;BME280;49234;35.600;139.358;2022-08-18T06:15:17;98707.93;;;32.61;41.37
63132;BME280;49234;35.600;139.358;2022-08-18T06:18:18;98706.01;;;33.21;40.59
63132;BME280;49234;35.600;139.358;2022-08-18T06:21:02;98700.90;;;32.52;41.28
63132;BME280;49234;35.600;139.358;2022-08-18T06:23:41;98700.22;;;33.30;39.33
63132;BME280;49234;35.600;139.358;2022-08-18T06:26:19;98697.96;;;33.14;38.92
63132;BME280;49234;35.600;139.358;2022-08-18T06:29:00;98696.46;;;33.64;37.54
63132;BME280;49234;35.600;139.358;2022-08-18T06:31:37;98696.31;;;33.00;36.39
63132;BME280;49234;35.600;139.358;2022-08-18T06:34:16;98705.82;;;33.85;36.26
63132;BME280;49234;35.600;139.358;2022-08-18T06:36:54;98704.61;;;33.55;37.48
63132;BME280;49234;35.600;139.358;2022-08-18T06:39:33;98704.36;;;34.31;35.96
63132;BME280;49234;35.600;139.358;2022-08-18T06:42:03;98701.66;;;34.47;35.64
63132;BME280;49234;35.600;139.358;2022-08-18T06:44:36;98698.73;;;33.72;37.38
63132;BME280;49234;35.600;139.358;2022-08-18T06:47:11;98699.81;;;33.70;36.61
63132;BME280;49234;35.600;139.358;2022-08-18T06:49:45;98698.36;;;33.87;35.97
63132;BME280;49234;35.600;139.358;2022-08-18T06:52:23;98705.18;;;33.78;36.71
63132;BME280;49234;35.600;139.358;2022-08-18T06:54:56;98712.05;;;34.35;35.66
63132;BME280;49234;35.600;139.358;2022-08-18T06:57:30;98723.34;;;34.20;35.46
63132;BME280;49234;35.600;139.358;2022-08-18T07:00:03;98719.52;;;34.39;34.88
63132;BME280;49234;35.600;139.358;2022-08-18T07:02:44;98721.34;;;33.85;35.94
63132;BME280;49234;35.600;139.358;2022-08-18T07:05:22;98720.26;;;34.35;35.75
63132;BME280;49234;35.600;139.358;2022-08-18T07:08:11;98724.08;;;33.54;36.42
63132;BME280;49234;35.600;139.358;2022-08-18T07:10:43;98733.49;;;34.26;39.00
63132;BME280;49234;35.600;139.358;2022-08-18T07:13:20;98735.15;;;33.74;40.43
63132;BME280;49234;35.600;139.358;2022-08-18T07:15:49;98736.90;;;34.22;40.48
63132;BME280;49234;35.600;139.358;2022-08-18T07:18:24;98739.95;;;33.80;41.24
63132;BME280;49234;35.600;139.358;2022-08-18T07:20:57;98740.23;;;33.24;41.98
63132;BME280;49234;35.600;139.358;2022-08-18T07:23:31;98740.85;;;33.83;40.83
63132;BME280;49234;35.600;139.358;2022-08-18T07:26:05;98743.75;;;34.09;41.09
63132;BME280;49234;35.600;139.358;2022-08-18T07:28:37;98744.65;;;33.36;42.09
63132;BME280;49234;35.600;139.358;2022-08-18T07:31:33;98742.87;;;33.16;42.41
63132;BME280;49234;35.600;139.358;2022-08-18T07:34:06;98746.52;;;32.65;43.09
63132;BME280;49234;35.600;139.358;2022-08-18T07:36:41;98755.39;;;32.67;43.28
63132;BME280;49234;35.600;139.358;2022-08-18T07:39:18;98752.90;;;33.79;41.87
63132;BME280;49234;35.600;139.358;2022-08-18T07:41:53;98751.17;;;33.44;42.48
63132;BME280;49234;35.600;139.358;2022-08-18T07:44:37;98756.27;;;33.49;41.95
63132;BME280;49234;35.600;139.358;2022-08-18T07:47:14;98767.98;;;33.27;42.54
63132;BME280;49234;35.600;139.358;2022-08-18T07:49:46;98769.63;;;33.64;42.58
63132;BME280;49234;35.600;139.358;2022-08-18T07:52:21;98776.17;;;33.38;42.43
63132;BME280;49234;35.600;139.358;2022-08-18T07:55:00;98782.63;;;33.48;42.72
63132;BME280;49234;35.600;139.358;2022-08-18T07:57:40;98787.14;;;33.24;42.68
63132;BME280;49234;35.600;139.358;2022-08-18T08:00:19;98798.73;;;32.91;43.25
63132;BME280;49234;35.600;139.358;2022-08-18T08:02:58;98805.50;;;33.20;42.54
63132;BME280;49234;35.600;139.358;2022-08-18T08:05:40;98807.03;;;33.14;42.69
63132;BME280;49234;35.600;139.358;2022-08-18T08:08:19;98808.80;;;32.73;43.82
63132;BME280;49234;35.600;139.358;2022-08-18T08:10:58;98816.36;;;33.08;42.98
63132;BME280;49234;35.600;139.358;2022-08-18T08:13:39;98826.53;;;33.31;42.17
63132;BME280;49234;35.600;139.358;2022-08-18T08:16:18;98833.44;;;32.97;43.47
63132;BME280;49234;35.600;139.358;2022-08-18T08:18:58;98836.54;;;33.33;42.24
63132;BME280;49234;35.600;139.358;2022-08-18T08:21:32;98839.89;;;32.73;43.78
63132;BME280;49234;35.600;139.358;2022-08-18T08:24:12;98848.62;;;32.89;43.53
63132;BME280;49234;35.600;139.358;2022-08-18T08:26:52;98854.39;;;32.67;43.69
63132;BME280;49234;35.600;139.358;2022-08-18T08:29:33;98863.49;;;32.69;43.46
63132;BME280;49234;35.600;139.358;2022-08-18T08:32:08;98872.13;;;32.31;44.45
63132;BME280;49234;35.600;139.358;2022-08-18T08:34:44;98878.45;;;32.68;43.64
63132;BME280;49234;35.600;139.358;2022-08-18T08:37:20;98877.84;;;33.24;42.34
63132;BME280;49234;35.600;139.358;2022-08-18T08:39:56;98874.72;;;32.66;43.51
63132;BME280;49234;35.600;139.358;2022-08-18T08:42:39;98880.02;;;32.62;43.65
63132;BME280;49234;35.600;139.358;2022-08-18T08:45:15;98883.52;;;32.52;44.07
63132;BME280;49234;35.600;139.358;2022-08-18T08:47:51;98882.17;;;32.11;44.39
63132;BME280;49234;35.600;139.358;2022-08-18T08:50:27;98883.60;;;31.70;44.46
63132;BME280;49234;35.600;139.358;2022-08-18T08:53:02;98883.11;;;31.56;43.62
63132;BME280;49234;35.600;139.358;2022-08-18T08:55:36;98889.06;;;31.32;44.35
63132;BME280;49234;35.600;139.358;2022-08-18T08:58:18;98893.88;;;32.09;42.14
63132;BME280;49234;35.600;139.358;2022-08-18T09:00:49;98895.67;;;31.95;42.65
63132;BME280;49234;35.600;139.358;2022-08-18T09:03:27;98895.82;;;32.02;42.46
63132;BME280;49234;35.600;139.358;2022-08-18T09:06:15;98899.51;;;31.73;42.34
63132;BME280;49234;35.600;139.358;2022-08-18T09:09:20;98907.14;;;32.09;41.50
63132;BME280;49234;35.600;139.358;2022-08-18T09:12:08;98899.07;;;31.71;41.11
63132;BME280;49234;35.600;139.358;2022-08-18T09:15:39;98898.91;;;32.41;41.44
63132;BME280;49234;35.600;139.358;2022-08-18T09:18:30;98881.37;;;31.85;41.37
63132;BME280;49234;35.600;139.358;2022-08-18T09:21:10;98882.23;;;31.97;42.45
63132;BME280;49234;35.600;139.358;2022-08-18T09:23:48;98885.93;;;32.22;40.17
63132;BME280;49234;35.600;139.358;2022-08-18T09:26:38;98892.35;;;31.92;41.45
63132;BME280;49234;35.600;139.358;2022-08-18T09:29:16;98894.31;;;31.63;41.32
63132;BME280;49234;35.600;139.358;2022-08-18T09:31:47;98898.78;;;31.81;41.78
63132;BME280;49234;35.600;139.358;2022-08-18T09:34:30;98903.53;;;31.91;41.34
63132;BME280;49234;35.600;139.358;2022-08-18T09:37:12;98906.28;;;32.19;40.77
63132;BME280;49234;35.600;139.358;2022-08-18T09:39:52;98912.01;;;31.80;40.90
63132;BME280;49234;35.600;139.358;2022-08-18T09:42:32;98914.93;;;31.68;41.79
63132;BME280;49234;35.600;139.358;2022-08-18T09:45:09;98921.68;;;31.74;41.82
63132;BME280;49234;35.600;139.358;2022-08-18T09:48:44;98922.90;;;31.98;41.58
63132;BME280;49234;35.600;139.358;2022-08-18T09:51:31;98925.00;;;31.50;42.58
63132;BME280;49234;35.600;139.358;2022-08-18T09:54:09;98923.84;;;31.70;41.61
63132;BME280;49234;35.600;139.358;2022-08-18T09:57:44;98918.95;;;31.61;41.77
63132;BME280;49234;35.600;139.358;2022-08-18T10:00:29;98923.51;;;30.87;42.68
63132;BME280;49234;35.600;139.358;2022-08-18T10:03:09;98931.06;;;31.49;42.49
63132;BME280;49234;35.600;139.358;2022-08-18T10:05:40;98931.88;;;31.30;41.57
63132;BME280;49234;35.600;139.358;2022-08-18T10:08:48;98932.81;;;31.78;40.13
63132;BME280;49234;35.600;139.358;2022-08-18T10:11:36;98939.53;;;31.42;40.56
63132;BME280;49234;35.600;139.358;2022-08-18T10:14:24;98940.85;;;31.32;40.91
63132;BME280;49234;35.600;139.358;2022-08-18T10:17:02;98940.88;;;31.60;39.80
63132;BME280;49234;35.600;139.358;2022-08-18T10:19:46;98936.21;;;31.73;39.92
63132;BME280;49234;35.600;139.358;2022-08-18T10:22:36;98937.39;;;31.44;40.95
63132;BME280;49234;35.600;139.358;2022-08-18T10:25:07;98942.58;;;30.85;41.76
63132;BME280;49234;35.600;139.358;2022-08-18T10:27:57;98951.16;;;31.27;41.17
63132;BME280;49234;35.600;139.358;2022-08-18T10:31:04;98951.16;;;30.87;41.40
63132;BME280;49234;35.600;139.358;2022-08-18T10:34:07;98949.57;;;30.80;41.18
63132;BME280;49234;35.600;139.358;2022-08-18T10:36:45;98961.34;;;30.87;42.06
63132;BME280;49234;35.600;139.358;2022-08-18T10:39:19;98956.52;;;30.65;41.13
63132;BME280;49234;35.600;139.358;2022-08-18T10:41:59;98951.51;;;30.72;42.35
63132;BME280;49234;35.600;139.358;2022-08-18T10:44:33;98950.99;;;30.65;42.28
63132;BME280;49234;35.600;139.358;2022-08-18T10:47:04;98953.42;;;30.93;42.02
63132;BME280;49234;35.600;139.358;2022-08-18T10:49:33;98956.47;;;30.94;41.71
63132;BME280;49234;35.600;139.358;2022-08-18T10:53:15;98965.98;;;31.19;41.02
63132;BME280;49234;35.600;139.358;2022-08-18T10:55:51;98969.48;;;30.74;41.72
63132;BME280;49234;35.600;139.358;2022-08-18T10:58:48;98970.89;;;30.96;41.59
63132;BME280;49234;35.600;139.358;2022-08-18T11:01:37;98971.15;;;31.03;41.97
63132;BME280;49234;35.600;139.358;2022-08-18T11:04:23;98978.40;;;30.46;41.39
63132;BME280;49234;35.600;139.358;2022-08-18T11:07:02;98991.14;;;30.92;42.52
63132;BME280;49234;35.600;139.358;2022-08-18T11:09:33;98999.19;;;31.32;41.94
63132;BME280;49234;35.600;139.358;2022-08-18T11:12:04;99001.97;;;30.81;43.04
63132;BME280;49234;35.600;139.358;2022-08-18T11:14:54;98999.26;;;30.45;43.61
63132;BME280;49234;35.600;139.358;2022-08-18T11:17:37;98994.01;;;30.47;43.54
63132;BME280;49234;35.600;139.358;2022-08-18T11:20:12;98994.22;;;30.41;42.57
63132;BME280;49234;35.600;139.358;2022-08-18T11:22:51;98993.58;;;30.41;42.61
63132;BME280;49234;35.600;139.358;2022-08-18T11:25:25;98994.26;;;30.15;44.07
63132;BME280;49234;35.600;139.358;2022-08-18T11:27:55;98988.17;;;30.00;44.41
63132;BME280;49234;35.600;139.358;2022-08-18T11:30:27;98986.90;;;30.19;44.37
63132;BME280;49234;35.600;139.358;2022-08-18T11:32:57;98991.85;;;30.24;44.07
63132;BME280;49234;35.600;139.358;2022-08-18T11:35:30;98992.31;;;29.85;44.38
63132;BME280;49234;35.600;139.358;2022-08-18T11:38:01;98991.78;;;30.26;44.01
63132;BME280;49234;35.600;139.358;2022-08-18T11:40:37;98985.14;;;29.76;44.37
63132;BME280;49234;35.600;139.358;2022-08-18T11:43:18;98986.79;;;30.28;44.25
63132;BME280;49234;35.600;139.358;2022-08-18T11:45:52;98996.83;;;29.58;45.63
63132;BME280;49234;35.600;139.358;2022-08-18T11:48:35;99004.22;;;29.49;45.37
63132;BME280;49234;35.600;139.358;2022-08-18T11:51:16;99010.65;;;29.64;45.48
63132;BME280;49234;35.600;139.358;2022-08-18T11:53:54;99009.08;;;29.88;45.88
63132;BME280;49234;35.600;139.358;2022-08-18T11:56:27;99007.93;;;29.45;46.91
63132;BME280;49234;35.600;139.358;2022-08-18T11:58:59;99010.68;;;29.49;46.43
63132;BME280;49234;35.600;139.358;2022-08-18T12:01:34;99008.08;;;29.57;46.58
63132;BME280;49234;35.600;139.358;2022-08-18T12:04:13;99006.06;;;29.98;46.74
63132;BME280;49234;35.600;139.358;2022-08-18T12:06:55;99009.78;;;30.00;46.68
63132;BME280;49234;35.600;139.358;2022-08-18T12:09:31;99006.66;;;29.64;47.96
63132;BME280;49234;35.600;139.358;2022-08-18T12:12:03;99005.04;;;30.08;48.53
63132;BME280;49234;35.600;139.358;2022-08-18T12:14:51;99002.55;;;29.63;48.84
63132;BME280;49234;35.600;139.358;2022-08-18T12:17:20;98998.74;;;29.93;46.15
63132;BME280;49234;35.600;139.358;2022-08-18T12:19:49;98999.40;;;29.91;46.60
63132;BME280;49234;35.600;139.358;2022-08-18T12:22:22;98999.85;;;30.12;46.62
63132;BME280;49234;35.600;139.358;2022-08-18T12:24:52;99010.78;;;29.79;47.07
63132;BME280;49234;35.600;139.358;2022-08-18T12:27:24;99009.00;;;29.89;47.38
63132;BME280;49234;35.600;139.358;2022-08-18T12:29:55;99010.19;;;29.71;46.66
63132;BME280;49234;35.600;139.358;2022-08-18T12:32:29;99009.28;;;29.72;47.13
63132;BME280;49234;35.600;139.358;2022-08-18T12:35:00;99009.09;;;29.64;47.01
63132;BME280;49234;35.600;139.358;2022-08-18T12:37:30;99016.92;;;29.81;47.52
63132;BME280;49234;35.600;139.358;2022-08-18T12:40:00;99023.54;;;29.58;47.34
63132;BME280;49234;35.600;139.358;2022-08-18T12:42:29;99029.14;;;29.36;48.03
63132;BME280;49234;35.600;139.358;2022-08-18T12:45:04;99032.21;;;29.85;47.70
63132;BME280;49234;35.600;139.358;2022-08-18T12:47:39;99025.77;;;29.44;47.71
63132;BME280;49234;35.600;139.358;2022-08-18T12:50:09;99020.85;;;29.86;47.62
63132;BME280;49234;35.600;139.358;2022-08-18T12:52:40;99019.01;;;29.59;47.99
63132;BME280;49234;35.600;139.358;2022-08-18T12:55:09;99022.14;;;29.94;48.82
63132;BME280;49234;35.600;139.358;2022-08-18T12:57:39;99019.77;;;29.67;47.87
63132;BME280;49234;35.600;139.358;2022-08-18T13:00:09;99021.83;;;29.99;47.71
63132;BME280;49234;35.600;139.358;2022-08-18T13:02:38;99025.32;;;29.78;48.07
63132;BME280;49234;35.600;139.358;2022-08-18T13:05:09;99019.99;;;29.43;48.00
63132;BME280;49234;35.600;139.358;2022-08-18T13:07:38;99013.58;;;29.83;48.34
63132;BME280;49234;35.600;139.358;2022-08-18T13:10:08;99017.14;;;29.78;48.76
63132;BME280;49234;35.600;139.358;2022-08-18T13:12:37;99014.50;;;29.93;48.55
63132;BME280;49234;35.600;139.358;2022-08-18T13:15:07;99016.94;;;29.88;48.54
63132;BME280;49234;35.600;139.358;2022-08-18T13:17:38;99019.99;;;29.63;49.46
63132;BME280;49234;35.600;139.358;2022-08-18T13:20:10;99019.90;;;29.67;48.72